sensor_id;sensor_type;location;lat;lon;timestamp;pressure;altitude;pressure_sealevel;temperature;humidity
47280;BME280;34064;44.942;0.008;2023-11-18T00:00:35;99823.72;;;14.16;65.11
47280;BME280;34064;44.942;0.008;2023-11-18T00:03:01;99820.84;;;14.19;64.98
47280;BME280;34064;44.942;0.008;2023-11-18T00:05:28;99812.81;;;14.19;64.85
47280;BME280;34064;44.942;0.008;2023-11-18T00:07:54;99817.19;;;14.20;65.01
47280;BME280;34064;44.942;0.008;2023-11-18T00:10:21;99812.81;;;14.19;64.87
47280;BME280;34064;44.942;0.008;2023-11-18T00:12:47;99804.81;;;14.19;64.70
47280;BME280;34064;44.942;0.008;2023-11-18T00:15:14;99798.59;;;14.18;64.97
47280;BME280;34064;44.942;0.008;2023-11-18T00:17:40;99803.09;;;14.18;64.97
47280;BME280;34064;44.942;0.008;2023-11-18T00:20:07;99802.34;;;14.16;64.81
47280;BME280;34064;44.942;0.008;2023-11-18T00:22:38;99804.06;;;14.17;64.78
47280;BME280;34064;44.942;0.008;2023-11-18T00:25:06;99796.03;;;14.17;64.94
47280;BME280;34064;44.942;0.008;2023-11-18T00:27:35;99801.38;;;14.17;64.95
47280;BME280;34064;44.942;0.008;2023-11-18T00:30:07;99801.38;;;14.17;64.86
47280;BME280;34064;44.942;0.008;2023-11-18T00:32:40;99802.34;;;14.16;64.68
47280;BME280;34064;44.942;0.008;2023-11-18T00:35:06;99813.03;;;14.16;65.05
47280;BME280;34064;44.942;0.008;2023-11-18T00:37:33;99806.84;;;14.15;64.87
47280;BME280;34064;44.942;0.008;2023-11-18T00:40:00;99797.97;;;14.15;64.93
47280;BME280;34064;44.942;0.008;2023-11-18T00:42:26;99807.69;;;14.16;65.10
47280;BME280;34064;44.942;0.008;2023-11-18T00:44:52;99799.69;;;14.16;65.09
47280;BME280;34064;44.942;0.008;2023-11-18T00:47:21;99792.63;;;14.15;64.78
47280;BME280;34064;44.942;0.008;2023-11-18T00:49:49;99795.31;;;14.15;64.94
47280;BME280;34064;44.942;0.008;2023-11-18T00:52:16;99785.59;;;14.14;65.02
47280;BME280;34064;44.942;0.008;2023-11-18T00:54:42;99786.53;;;14.13;64.94
47280;BME280;34064;44.942;0.008;2023-11-18T00:57:08;99783.16;;;14.11;64.87
47280;BME280;34064;44.942;0.008;2023-11-18T00:59:35;99790.44;;;14.09;65.00
47280;BME280;34064;44.942;0.008;2023-11-18T01:02:01;99787.97;;;14.06;64.89
47280;BME280;34064;44.942;0.008;2023-11-18T01:04:30;99785.56;;;14.02;64.77
47280;BME280;34064;44.942;0.008;2023-11-18T01:06:59;99784.81;;;14.00;64.96
47280;BME280;34064;44.942;0.008;2023-11-18T01:09:25;99786.88;;;13.97;64.90
47280;BME280;34064;44.942;0.008;2023-11-18T01:11:51;99785.25;;;13.94;64.95
47280;BME280;34064;44.942;0.008;2023-11-18T01:14:18;99779.22;;;13.92;64.86
47280;BME280;34064;44.942;0.008;2023-11-18T01:16:45;99778.47;;;13.90;64.99
47280;BME280;34064;44.942;0.008;2023-11-18T01:19:11;99784.03;;;13.87;64.89
47280;BME280;34064;44.942;0.008;2023-11-18T01:21:38;99776.97;;;13.86;64.91
47280;BME280;34064;44.942;0.008;2023-11-18T01:24:05;99774.44;;;13.84;64.88
47280;BME280;34064;44.942;0.008;2023-11-18T01:26:32;99760.13;;;13.85;65.07
47280;BME280;34064;44.942;0.008;2023-11-18T01:28:58;99757.31;;;13.87;64.94
47280;BME280;34064;44.942;0.008;2023-11-18T01:31:24;99766.28;;;13.86;64.91
47280;BME280;34064;44.942;0.008;2023-11-18T01:33:51;99762.78;;;13.85;64.89
47280;BME280;34064;44.942;0.008;2023-11-18T01:36:17;99759.50;;;13.82;65.08
47280;BME280;34064;44.942;0.008;2023-11-18T01:38:44;99766.78;;;13.80;65.01
47280;BME280;34064;44.942;0.008;2023-11-18T01:41:10;99755.34;;;13.78;64.98
47280;BME280;34064;44.942;0.008;2023-11-18T01:43:37;99752.88;;;13.75;65.01
47280;BME280;34064;44.942;0.008;2023-11-18T01:46:05;99747.81;;;13.71;65.04
47280;BME280;34064;44.942;0.008;2023-11-18T01:48:32;99753.97;;;13.72;64.94
47280;BME280;34064;44.942;0.008;2023-11-18T01:51:04;99752.28;;;13.71;64.94
47280;BME280;34064;44.942;0.008;2023-11-18T01:53:34;99749.59;;;13.71;65.10
47280;BME280;34064;44.942;0.008;2023-11-18T01:56:02;99747.81;;;13.71;64.95
47280;BME280;34064;44.942;0.008;2023-11-18T01:58:28;99745.97;;;13.72;64.91
47280;BME280;34064;44.942;0.008;2023-11-18T02:00:57;99742.47;;;13.71;64.99
47280;BME280;34064;44.942;0.008;2023-11-18T02:03:24;99736.25;;;13.71;64.94
47280;BME280;34064;44.942;0.008;2023-11-18T02:05:53;99746.09;;;13.70;64.83
47280;BME280;34064;44.942;0.008;2023-11-18T02:08:20;99738.31;;;13.67;65.07
47280;BME280;34064;44.942;0.008;2023-11-18T02:10:48;99742.81;;;13.67;65.00
47280;BME280;34064;44.942;0.008;2023-11-18T02:13:23;99744.59;;;13.66;64.90
47280;BME280;34064;44.942;0.008;2023-11-18T02:15:56;99749.44;;;13.61;64.80
47280;BME280;34064;44.942;0.008;2023-11-18T02:18:24;99747.00;;;13.58;64.90
47280;BME280;34064;44.942;0.008;2023-11-18T02:20:53;99740.19;;;13.54;64.92
47280;BME280;34064;44.942;0.008;2023-11-18T02:23:21;99739.47;;;13.52;64.94
47280;BME280;34064;44.942;0.008;2023-11-18T02:25:48;99737.00;;;13.49;64.92
47280;BME280;34064;44.942;0.008;2023-11-18T02:28:15;99737.00;;;13.49;64.97
47280;BME280;34064;44.942;0.008;2023-11-18T02:30:43;99728.25;;;13.47;64.90
47280;BME280;34064;44.942;0.008;2023-11-18T02:33:18;99730.09;;;13.46;64.87
47280;BME280;34064;44.942;0.008;2023-11-18T02:38:46;99732.34;;;13.39;64.98
47280;BME280;34064;44.942;0.008;2023-11-18T02:41:13;99740.13;;;13.43;64.95
47280;BME280;34064;44.942;0.008;2023-11-18T02:43:41;99741.09;;;13.41;64.63
47280;BME280;34064;44.942;0.008;2023-11-18T02:46:11;99742.19;;;13.39;64.75
47280;BME280;34064;44.942;0.008;2023-11-18T02:48:40;99750.50;;;13.34;64.68
47280;BME280;34064;44.942;0.008;2023-11-18T02:51:09;99746.78;;;13.24;65.00
47280;BME280;34064;44.942;0.008;2023-11-18T02:53:38;99734.63;;;13.20;65.10
47280;BME280;34064;44.942;0.008;2023-11-18T02:56:07;99726.63;;;13.20;65.10
47280;BME280;34064;44.942;0.008;2023-11-18T02:58:33;99730.25;;;13.19;65.01
47280;BME280;34064;44.942;0.008;2023-11-18T03:00:59;99727.69;;;13.17;65.04
47280;BME280;34064;44.942;0.008;2023-11-18T03:03:26;99722.50;;;13.16;65.08
47280;BME280;34064;44.942;0.008;2023-11-18T03:05:55;99710.94;;;13.15;65.04
47280;BME280;34064;44.942;0.008;2023-11-18T03:08:22;99704.53;;;13.18;64.90
47280;BME280;34064;44.942;0.008;2023-11-18T03:10:48;99698.97;;;13.21;64.76
47280;BME280;34064;44.942;0.008;2023-11-18T03:13:18;99699.09;;;13.19;64.56
47280;BME280;34064;44.942;0.008;2023-11-18T03:15:45;99694.84;;;13.17;64.55
47280;BME280;34064;44.942;0.008;2023-11-18T03:18:14;99690.56;;;13.14;64.67
47280;BME280;34064;44.942;0.008;2023-11-18T03:20:41;99700.53;;;13.12;64.64
47280;BME280;34064;44.942;0.008;2023-11-18T03:23:07;99704.16;;;13.11;64.71
47280;BME280;34064;44.942;0.008;2023-11-18T03:25:35;99711.63;;;13.06;64.64
47280;BME280;34064;44.942;0.008;2023-11-18T03:28:01;99713.88;;;12.99;64.60
47280;BME280;34064;44.942;0.008;2023-11-18T03:30:28;99716.47;;;12.88;64.85
47280;BME280;34064;44.942;0.008;2023-11-18T03:32:55;99726.84;;;12.79;65.07
47280;BME280;34064;44.942;0.008;2023-11-18T03:35:22;99728.97;;;12.74;65.12
47280;BME280;34064;44.942;0.008;2023-11-18T03:37:50;99726.50;;;12.71;65.16
47280;BME280;34064;44.942;0.008;2023-11-18T03:40:17;99723.97;;;12.70;65.12
47280;BME280;34064;44.942;0.008;2023-11-18T03:42:44;99718.63;;;12.70;65.18
47280;BME280;34064;44.942;0.008;2023-11-18T03:45:13;99709.81;;;12.69;65.12
47280;BME280;34064;44.942;0.008;2023-11-18T03:47:44;99697.94;;;12.73;64.96
47280;BME280;34064;44.942;0.008;2023-11-18T03:50:11;99691.19;;;12.80;64.83
47280;BME280;34064;44.942;0.008;2023-11-18T03:52:39;99696.97;;;12.74;65.01
47280;BME280;34064;44.942;0.008;2023-11-18T03:55:06;99696.16;;;12.74;65.07
47280;BME280;34064;44.942;0.008;2023-11-18T03:57:33;99712.47;;;12.69;64.94
47280;BME280;34064;44.942;0.008;2023-11-18T04:00:00;99705.44;;;12.68;65.15
47280;BME280;34064;44.942;0.008;2023-11-18T04:02:26;99696.88;;;12.63;65.20
47280;BME280;34064;44.942;0.008;2023-11-18T04:04:53;99707.66;;;12.61;65.15
47280;BME280;34064;44.942;0.008;2023-11-18T04:07:19;99713.00;;;12.61;65.17
47280;BME280;34064;44.942;0.008;2023-11-18T04:09:45;99703.28;;;12.60;65.13
47280;BME280;34064;44.942;0.008;2023-11-18T04:12:11;99701.59;;;12.59;65.16
47280;BME280;34064;44.942;0.008;2023-11-18T04:14:38;99696.56;;;12.68;64.81
47280;BME280;34064;44.942;0.008;2023-11-18T04:17:04;99690.28;;;12.69;64.71
47280;BME280;34064;44.942;0.008;2023-11-18T04:19:32;99678.03;;;12.66;64.85
47280;BME280;34064;44.942;0.008;2023-11-18T04:21:58;99675.34;;;12.66;64.71
47280;BME280;34064;44.942;0.008;2023-11-18T04:24:24;99674.72;;;12.62;64.78
47280;BME280;34064;44.942;0.008;2023-11-18T04:26:51;99683.81;;;12.60;64.76
47280;BME280;34064;44.942;0.008;2023-11-18T04:29:17;99685.72;;;12.58;64.82
47280;BME280;34064;44.942;0.008;2023-11-18T04:31:44;99692.00;;;12.57;64.69
47280;BME280;34064;44.942;0.008;2023-11-18T04:34:10;99686.88;;;12.54;64.82
47280;BME280;34064;44.942;0.008;2023-11-18T04:36:37;99682.50;;;12.53;64.77
47280;BME280;34064;44.942;0.008;2023-11-18T04:39:03;99689.78;;;12.51;64.56
47280;BME280;34064;44.942;0.008;2023-11-18T04:41:31;99690.00;;;12.47;64.64
47280;BME280;34064;44.942;0.008;2023-11-18T04:43:57;99693.19;;;12.40;64.68
47280;BME280;34064;44.942;0.008;2023-11-18T04:46:24;99694.16;;;12.26;64.98
47280;BME280;34064;44.942;0.008;2023-11-18T04:48:50;99696.72;;;12.27;64.65
47280;BME280;34064;44.942;0.008;2023-11-18T04:51:18;99696.72;;;12.27;64.65
47280;BME280;34064;44.942;0.008;2023-11-18T04:53:45;99695.97;;;12.25;64.81
47280;BME280;34064;44.942;0.008;2023-11-18T04:56:11;99699.72;;;12.23;64.57
47280;BME280;34064;44.942;0.008;2023-11-18T04:58:39;99695.34;;;12.22;64.68
47280;BME280;34064;44.942;0.008;2023-11-18T05:01:06;99691.91;;;12.20;64.66
47280;BME280;34064;44.942;0.008;2023-11-18T05:03:32;99692.75;;;12.20;64.67
47280;BME280;34064;44.942;0.008;2023-11-18T05:05:59;99702.78;;;12.16;64.92
47280;BME280;34064;44.942;0.008;2023-11-18T05:08:25;99709.50;;;12.09;64.90
47280;BME280;34064;44.942;0.008;2023-11-18T05:10:51;99707.34;;;12.14;64.72
47280;BME280;34064;44.942;0.008;2023-11-18T05:13:18;99709.06;;;12.15;64.67
47280;BME280;34064;44.942;0.008;2023-11-18T05:15:46;99704.69;;;12.14;64.56
47280;BME280;34064;44.942;0.008;2023-11-18T05:18:13;99706.72;;;12.11;64.44
47280;BME280;34064;44.942;0.008;2023-11-18T05:20:45;99704.16;;;12.09;64.48
47280;BME280;34064;44.942;0.008;2023-11-18T05:23:12;99691.81;;;12.08;64.40
47280;BME280;34064;44.942;0.008;2023-11-18T05:25:42;99691.06;;;12.06;64.46
47280;BME280;34064;44.942;0.008;2023-11-18T05:28:09;99686.59;;;12.07;64.51
47280;BME280;34064;44.942;0.008;2023-11-18T05:30:40;99686.47;;;12.08;64.55
47280;BME280;34064;44.942;0.008;2023-11-18T05:33:07;99677.72;;;12.06;64.41
47280;BME280;34064;44.942;0.008;2023-11-18T05:35:35;99674.13;;;12.07;64.57
47280;BME280;34064;44.942;0.008;2023-11-18T05:38:01;99654.53;;;12.08;64.50
47280;BME280;34064;44.942;0.008;2023-11-18T05:40:32;99660.47;;;12.12;64.51
47280;BME280;34064;44.942;0.008;2023-11-18T05:42:58;99649.81;;;12.12;64.32
47280;BME280;34064;44.942;0.008;2023-11-18T05:45:25;99652.59;;;12.10;64.47
47280;BME280;34064;44.942;0.008;2023-11-18T05:47:55;99656.22;;;12.09;64.32
47280;BME280;34064;44.942;0.008;2023-11-18T05:50:23;99653.56;;;12.09;64.38
47280;BME280;34064;44.942;0.008;2023-11-18T05:52:51;99654.63;;;12.07;64.47
47280;BME280;34064;44.942;0.008;2023-11-18T05:55:18;99653.88;;;12.05;64.24
47280;BME280;34064;44.942;0.008;2023-11-18T05:57:44;99651.34;;;12.03;64.41
47280;BME280;34064;44.942;0.008;2023-11-18T06:00:15;99657.69;;;12.00;64.42
47280;BME280;34064;44.942;0.008;2023-11-18T06:02:42;99662.59;;;11.94;64.42
47280;BME280;34064;44.942;0.008;2023-11-18T06:05:10;99659.56;;;11.85;64.62
47280;BME280;34064;44.942;0.008;2023-11-18T06:07:39;99661.72;;;11.80;64.57
47280;BME280;34064;44.942;0.008;2023-11-18T06:10:09;99661.91;;;11.77;64.55
47280;BME280;34064;44.942;0.008;2023-11-18T06:12:36;99654.03;;;11.76;64.52
47280;BME280;34064;44.942;0.008;2023-11-18T06:15:06;99658.28;;;11.78;64.74
47280;BME280;34064;44.942;0.008;2023-11-18T06:17:34;99659.16;;;11.79;64.62
47280;BME280;34064;44.942;0.008;2023-11-18T06:20:01;99652.97;;;11.78;64.63
47280;BME280;34064;44.942;0.008;2023-11-18T06:22:27;99646.69;;;11.79;64.72
47280;BME280;34064;44.942;0.008;2023-11-18T06:24:53;99646.69;;;11.79;64.61
47280;BME280;34064;44.942;0.008;2023-11-18T06:27:20;99647.44;;;11.81;64.68
47280;BME280;34064;44.942;0.008;2023-11-18T06:29:49;99658.09;;;11.81;64.57
47280;BME280;34064;44.942;0.008;2023-11-18T06:32:16;99647.56;;;11.80;64.70
47280;BME280;34064;44.942;0.008;2023-11-18T06:34:42;99652.88;;;11.80;64.56
47280;BME280;34064;44.942;0.008;2023-11-18T06:37:09;99651.06;;;11.80;64.63
47280;BME280;34064;44.942;0.008;2023-11-18T06:39:35;99660.88;;;11.80;64.63
47280;BME280;34064;44.942;0.008;2023-11-18T06:42:05;99660.00;;;11.79;64.51
47280;BME280;34064;44.942;0.008;2023-11-18T06:44:37;99656.38;;;11.80;64.42
47280;BME280;34064;44.942;0.008;2023-11-18T06:47:04;99652.78;;;11.81;64.58
47280;BME280;34064;44.942;0.008;2023-11-18T06:49:32;99658.94;;;11.82;64.60
47280;BME280;34064;44.942;0.008;2023-11-18T06:52:01;99651.81;;;11.82;64.56
47280;BME280;34064;44.942;0.008;2023-11-18T06:54:31;99641.16;;;11.82;64.56
47280;BME280;34064;44.942;0.008;2023-11-18T06:56:59;99642.88;;;11.83;64.54
47280;BME280;34064;44.942;0.008;2023-11-18T06:59:25;99648.91;;;11.85;64.50
47280;BME280;34064;44.942;0.008;2023-11-18T07:01:51;99656.72;;;11.89;64.39
47280;BME280;34064;44.942;0.008;2023-11-18T07:04:18;99654.91;;;11.89;64.41
47280;BME280;34064;44.942;0.008;2023-11-18T07:06:45;99648.53;;;11.92;64.65
47280;BME280;34064;44.942;0.008;2023-11-18T07:09:11;99667.91;;;11.94;64.46
47280;BME280;34064;44.942;0.008;2023-11-18T07:11:44;99670.47;;;11.95;64.43
47280;BME280;34064;44.942;0.008;2023-11-18T07:14:12;99669.41;;;11.98;64.73
47280;BME280;34064;44.942;0.008;2023-11-18T07:16:41;99667.50;;;12.00;64.65
47280;BME280;34064;44.942;0.008;2023-11-18T07:19:08;99677.97;;;12.03;64.66
47280;BME280;34064;44.942;0.008;2023-11-18T07:21:36;99664.53;;;12.05;64.79
47280;BME280;34064;44.942;0.008;2023-11-18T07:24:02;99654.63;;;12.07;64.64
47280;BME280;34064;44.942;0.008;2023-11-18T07:26:29;99654.53;;;12.08;64.78
47280;BME280;34064;44.942;0.008;2023-11-18T07:28:55;99657.94;;;12.10;64.79
47280;BME280;34064;44.942;0.008;2023-11-18T07:31:22;99656.97;;;12.11;64.79
47280;BME280;34064;44.942;0.008;2023-11-18T07:33:48;99657.72;;;12.13;64.83
47280;BME280;34064;44.942;0.008;2023-11-18T07:36:16;99655.78;;;12.15;64.91
47280;BME280;34064;44.942;0.008;2023-11-18T07:38:43;99663.69;;;12.17;64.97
47280;BME280;34064;44.942;0.008;2023-11-18T07:41:10;99662.72;;;12.18;65.05
47280;BME280;34064;44.942;0.008;2023-11-18T07:43:47;99662.94;;;12.15;65.24
47280;BME280;34064;44.942;0.008;2023-11-18T07:46:13;99672.84;;;12.13;65.10
47280;BME280;34064;44.942;0.008;2023-11-18T07:48:40;99668.59;;;12.10;65.28
47280;BME280;34064;44.942;0.008;2023-11-18T07:51:07;99653.34;;;12.12;65.24
47280;BME280;34064;44.942;0.008;2023-11-18T07:53:34;99657.72;;;12.13;65.44
47280;BME280;34064;44.942;0.008;2023-11-18T07:56:02;99652.16;;;12.16;65.50
47280;BME280;34064;44.942;0.008;2023-11-18T07:58:28;99653.66;;;12.21;65.58
47280;BME280;34064;44.942;0.008;2023-11-18T08:00:55;99660.28;;;12.28;65.40
47280;BME280;34064;44.942;0.008;2023-11-18T08:03:21;99657.41;;;12.31;65.64
47280;BME280;34064;44.942;0.008;2023-11-18T08:05:48;99647.25;;;12.36;65.54
47280;BME280;34064;44.942;0.008;2023-11-18T08:08:15;99649.78;;;12.38;65.72
47280;BME280;34064;44.942;0.008;2023-11-18T08:10:44;99659.19;;;12.43;65.64
47280;BME280;34064;44.942;0.008;2023-11-18T08:13:11;99650.75;;;12.50;65.69
47280;BME280;34064;44.942;0.008;2023-11-18T08:15:40;99652.16;;;12.55;65.78
47280;BME280;34064;44.942;0.008;2023-11-18T08:18:07;99654.56;;;12.58;65.64
47280;BME280;34064;44.942;0.008;2023-11-18T08:20:34;99657.78;;;12.63;65.56
47280;BME280;34064;44.942;0.008;2023-11-18T08:23:00;99664.25;;;12.72;65.54
47280;BME280;34064;44.942;0.008;2023-11-18T08:25:27;99667.44;;;12.77;65.61
47280;BME280;34064;44.942;0.008;2023-11-18T08:27:53;99667.94;;;12.83;65.66
47280;BME280;34064;44.942;0.008;2023-11-18T08:30:20;99663.88;;;12.90;65.33
47280;BME280;34064;44.942;0.008;2023-11-18T08:32:47;99663.44;;;12.96;65.42
47280;BME280;34064;44.942;0.008;2023-11-18T08:35:14;99663.09;;;13.01;65.22
47280;BME280;34064;44.942;0.008;2023-11-18T08:37:41;99660.94;;;13.06;65.28
47280;BME280;34064;44.942;0.008;2023-11-18T08:40:14;99654.31;;;13.11;65.15
47280;BME280;34064;44.942;0.008;2023-11-18T08:42:48;99642.34;;;13.17;65.33
47280;BME280;34064;44.942;0.008;2023-11-18T08:45:22;99642.13;;;13.20;65.34
47280;BME280;34064;44.942;0.008;2023-11-18T08:47:53;99632.81;;;13.26;65.33
47280;BME280;34064;44.942;0.008;2023-11-18T08:50:20;99630.41;;;13.34;65.24
47280;BME280;34064;44.942;0.008;2023-11-18T08:52:51;99625.59;;;13.39;65.33
47280;BME280;34064;44.942;0.008;2023-11-18T08:55:24;99626.84;;;13.47;65.40
47280;BME280;34064;44.942;0.008;2023-11-18T08:58:05;99620.78;;;13.56;65.52
47280;BME280;34064;44.942;0.008;2023-11-18T09:00:42;99614.75;;;13.65;65.43
47280;BME280;34064;44.942;0.008;2023-11-18T09:03:12;99617.59;;;13.75;65.64
47280;BME280;34064;44.942;0.008;2023-11-18T09:05:57;99617.00;;;13.83;65.49
47280;BME280;34064;44.942;0.008;2023-11-18T09:08:31;99611.91;;;13.91;65.69
47280;BME280;34064;44.942;0.008;2023-11-18T09:11:09;99612.16;;;13.99;65.65
47280;BME280;34064;44.942;0.008;2023-11-18T09:13:46;99604.38;;;14.08;65.53
47280;BME280;34064;44.942;0.008;2023-11-18T09:16:15;99609.00;;;14.17;65.53
47280;BME280;34064;44.942;0.008;2023-11-18T09:18:43;99617.25;;;14.25;65.76
47280;BME280;34064;44.942;0.008;2023-11-18T09:21:13;99611.94;;;14.37;65.50
47280;BME280;34064;44.942;0.008;2023-11-18T09:23:45;99605.09;;;14.44;65.45
47280;BME280;34064;44.942;0.008;2023-11-18T09:26:14;99603.53;;;14.53;65.47
47280;BME280;34064;44.942;0.008;2023-11-18T09:28:40;99598.56;;;14.59;65.54
47280;BME280;34064;44.942;0.008;2023-11-18T09:31:08;99587.13;;;14.69;65.58
47280;BME280;34064;44.942;0.008;2023-11-18T09:33:39;99589.44;;;14.73;65.55
47280;BME280;34064;44.942;0.008;2023-11-18T09:36:11;99583.56;;;14.79;65.56
47280;BME280;34064;44.942;0.008;2023-11-18T09:38:42;99580.53;;;14.84;65.68
47280;BME280;34064;44.942;0.008;2023-11-18T09:41:09;99578.06;;;14.92;65.43
47280;BME280;34064;44.942;0.008;2023-11-18T09:43:43;99568.31;;;15.03;65.46
47280;BME280;34064;44.942;0.008;2023-11-18T09:46:14;99572.00;;;15.11;65.18
47280;BME280;34064;44.942;0.008;2023-11-18T09:48:51;99572.38;;;15.18;65.21
47280;BME280;34064;44.942;0.008;2023-11-18T09:51:36;99575.25;;;15.26;65.42
47280;BME280;34064;44.942;0.008;2023-11-18T09:54:20;99580.69;;;15.36;65.04
47280;BME280;34064;44.942;0.008;2023-11-18T09:57:03;99584.91;;;15.39;65.23
47280;BME280;34064;44.942;0.008;2023-11-18T10:00:01;99577.81;;;15.49;65.02
47280;BME280;34064;44.942;0.008;2023-11-18T10:02:50;99589.31;;;15.61;64.75
47280;BME280;34064;44.942;0.008;2023-11-18T10:05:19;99589.63;;;15.68;64.80
47280;BME280;34064;44.942;0.008;2023-11-18T10:07:49;99590.06;;;15.73;64.75
47280;BME280;34064;44.942;0.008;2023-11-18T10:10:16;99589.19;;;15.84;64.61
47280;BME280;34064;44.942;0.008;2023-11-18T10:12:44;99590.91;;;15.85;64.55
47280;BME280;34064;44.942;0.008;2023-11-18T10:15:21;99587.81;;;15.89;64.63
47280;BME280;34064;44.942;0.008;2023-11-18T10:17:52;99582.91;;;15.95;64.40
47280;BME280;34064;44.942;0.008;2023-11-18T10:20:43;99561.38;;;16.06;64.24
47280;BME280;34064;44.942;0.008;2023-11-18T10:23:11;99568.19;;;16.10;63.96
47280;BME280;34064;44.942;0.008;2023-11-18T10:25:43;99560.56;;;16.15;63.99
47280;BME280;34064;44.942;0.008;2023-11-18T10:28:28;99560.75;;;16.24;63.90
47280;BME280;34064;44.942;0.008;2023-11-18T10:30:59;99554.72;;;16.31;63.63
47280;BME280;34064;44.942;0.008;2023-11-18T10:33:46;99542.03;;;16.43;62.95
47280;BME280;34064;44.942;0.008;2023-11-18T10:36:22;99539.50;;;16.51;63.06
47280;BME280;34064;44.942;0.008;2023-11-18T10:38:50;99519.59;;;16.54;63.11
47280;BME280;34064;44.942;0.008;2023-11-18T10:41:19;99516.09;;;16.63;63.09
47280;BME280;34064;44.942;0.008;2023-11-18T10:43:45;99504.69;;;16.71;63.04
47280;BME280;34064;44.942;0.008;2023-11-18T10:46:17;99489.59;;;16.80;62.49
47280;BME280;34064;44.942;0.008;2023-11-18T10:48:49;99493.25;;;16.89;62.76
47280;BME280;34064;44.942;0.008;2023-11-18T10:51:20;99497.47;;;16.91;62.88
47280;BME280;34064;44.942;0.008;2023-11-18T10:53:53;99479.44;;;17.03;62.60
47280;BME280;34064;44.942;0.008;2023-11-18T10:56:25;99480.28;;;17.13;62.47
47280;BME280;34064;44.942;0.008;2023-11-18T10:59:07;99479.69;;;17.20;62.33
47280;BME280;34064;44.942;0.008;2023-11-18T11:01:35;99475.75;;;17.24;61.79
47280;BME280;34064;44.942;0.008;2023-11-18T11:04:09;99478.56;;;17.32;61.71
47280;BME280;34064;44.942;0.008;2023-11-18T11:06:41;99479.94;;;17.36;61.74
47280;BME280;34064;44.942;0.008;2023-11-18T11:09:07;99466.63;;;17.44;61.66
47280;BME280;34064;44.942;0.008;2023-11-18T11:12:03;99471.44;;;17.51;61.44
47280;BME280;34064;44.942;0.008;2023-11-18T11:14:35;99470.84;;;17.57;61.25
47280;BME280;34064;44.942;0.008;2023-11-18T11:17:07;99461.19;;;17.64;61.50
47280;BME280;34064;44.942;0.008;2023-11-18T11:26:02;99439.88;;;17.90;60.45
47280;BME280;34064;44.942;0.008;2023-11-18T11:28:54;99444.69;;;17.87;60.34
47280;BME280;34064;44.942;0.008;2023-11-18T11:31:41;99439.16;;;17.88;60.31
47280;BME280;34064;44.942;0.008;2023-11-18T11:34:17;99444.41;;;17.90;60.07
47280;BME280;34064;44.942;0.008;2023-11-18T11:36:51;99444.41;;;17.90;60.00
47280;BME280;34064;44.942;0.008;2023-11-18T11:39:19;99435.63;;;17.98;60.08
47280;BME280;34064;44.942;0.008;2023-11-18T11:41:54;99417.75;;;18.06;59.77
47280;BME280;34064;44.942;0.008;2023-11-18T11:44:23;99413.16;;;18.17;60.05
47280;BME280;34064;44.942;0.008;2023-11-18T11:47:00;99420.00;;;18.29;59.97
47280;BME280;34064;44.942;0.008;2023-11-18T11:49:47;99425.16;;;18.40;59.75
47280;BME280;34064;44.942;0.008;2023-11-18T11:52:32;99424.16;;;18.42;59.59
47280;BME280;34064;44.942;0.008;2023-11-18T11:55:29;99411.78;;;18.49;59.43
47280;BME280;34064;44.942;0.008;2023-11-18T11:57:58;99409.50;;;18.54;59.26
47280;BME280;34064;44.942;0.008;2023-11-18T12:00:26;99412.25;;;18.62;59.12
47280;BME280;34064;44.942;0.008;2023-11-18T12:03:01;99407.94;;;18.69;58.45
47280;BME280;34064;44.942;0.008;2023-11-18T12:05:30;99404.94;;;18.73;58.59
47280;BME280;34064;44.942;0.008;2023-11-18T12:07:59;99408.69;;;18.80;58.62
47280;BME280;34064;44.942;0.008;2023-11-18T12:10:32;99400.66;;;18.88;57.97
47280;BME280;34064;44.942;0.008;2023-11-18T12:13:08;99400.06;;;18.94;58.31
47280;BME280;34064;44.942;0.008;2023-11-18T12:18:20;99385.03;;;19.10;57.70
47280;BME280;34064;44.942;0.008;2023-11-18T12:20:48;99382.34;;;19.10;57.84
47280;BME280;34064;44.942;0.008;2023-11-18T12:23:20;99374.63;;;19.15;56.72
47280;BME280;34064;44.942;0.008;2023-11-18T12:25:51;99381.00;;;19.14;57.68
47280;BME280;34064;44.942;0.008;2023-11-18T12:28:25;99380.00;;;19.15;57.52
47280;BME280;34064;44.942;0.008;2023-11-18T12:30:54;99376.31;;;19.16;57.62
47280;BME280;34064;44.942;0.008;2023-11-18T12:34:00;99387.00;;;19.26;57.90
47280;BME280;34064;44.942;0.008;2023-11-18T12:37:11;99369.53;;;19.38;56.84
47280;BME280;34064;44.942;0.008;2023-11-18T12:40:02;99360.66;;;19.46;56.45
47280;BME280;34064;44.942;0.008;2023-11-18T12:43:02;99363.19;;;19.47;56.77
47280;BME280;34064;44.942;0.008;2023-11-18T12:48:28;99355.28;;;19.46;56.31
47280;BME280;34064;44.942;0.008;2023-11-18T12:50:58;99354.44;;;19.45;56.26
47280;BME280;34064;44.942;0.008;2023-11-18T12:53:26;99362.34;;;19.47;56.92
47280;BME280;34064;44.942;0.008;2023-11-18T12:55:54;99365.22;;;19.45;56.80
47280;BME280;34064;44.942;0.008;2023-11-18T12:58:21;99357.16;;;19.54;56.88
47280;BME280;34064;44.942;0.008;2023-11-18T13:00:49;99359.69;;;19.55;56.62
47280;BME280;34064;44.942;0.008;2023-11-18T13:03:16;99355.31;;;19.54;56.90
47280;BME280;34064;44.942;0.008;2023-11-18T13:05:44;99350.09;;;19.53;56.33
47280;BME280;34064;44.942;0.008;2023-11-18T13:08:11;99352.91;;;19.51;56.51
47280;BME280;34064;44.942;0.008;2023-11-18T13:10:41;99355.97;;;19.48;56.45
47280;BME280;34064;44.942;0.008;2023-11-18T13:13:07;99356.66;;;19.50;56.70
47280;BME280;34064;44.942;0.008;2023-11-18T13:15:35;99361.19;;;19.49;56.65
47280;BME280;34064;44.942;0.008;2023-11-18T13:18:03;99355.47;;;19.53;56.65
47280;BME280;34064;44.942;0.008;2023-11-18T13:20:33;99352.31;;;19.66;56.54
47280;BME280;34064;44.942;0.008;2023-11-18T13:23:03;99349.66;;;19.82;56.45
47280;BME280;34064;44.942;0.008;2023-11-18T13:25:35;99336.78;;;20.02;55.70
47280;BME280;34064;44.942;0.008;2023-11-18T13:28:05;99336.81;;;20.10;55.51